createdAt,value
2023-03-26T00:01:06.039Z,7.93
2023-03-26T00:03:41.057Z,7.94
2023-03-26T00:06:18.506Z,7.94
2023-03-26T00:08:50.883Z,7.95
2023-03-26T00:11:25.231Z,7.90
2023-03-26T00:13:58.063Z,7.89
2023-03-26T00:16:32.837Z,7.91
2023-03-26T00:19:06.136Z,7.92
2023-03-26T00:21:41.637Z,7.92
2023-03-26T00:24:17.632Z,7.93
2023-03-26T00:26:53.619Z,7.93
2023-03-26T00:29:28.261Z,7.93
2023-03-26T00:32:00.300Z,7.93
2023-03-26T00:34:34.615Z,7.93
2023-03-26T00:37:09.301Z,7.92
2023-03-26T00:39:42.938Z,7.91
2023-03-26T00:42:15.892Z,7.89
2023-03-26T00:44:48.125Z,7.87
2023-03-26T00:47:20.142Z,7.85
2023-03-26T00:49:52.168Z,7.84
2023-03-26T00:52:28.894Z,7.82
2023-03-26T00:55:01.058Z,7.82
2023-03-26T00:57:35.911Z,7.81
2023-03-26T01:00:17.106Z,7.82
2023-03-26T01:02:49.329Z,7.81
2023-03-26T01:05:53.307Z,7.80
2023-03-26T01:08:36.400Z,7.79
2023-03-26T01:11:14.779Z,7.78
2023-03-26T01:13:52.508Z,7.77
2023-03-26T01:16:30.623Z,7.77
2023-03-26T01:19:02.979Z,7.76
2023-03-26T01:21:35.483Z,7.77
2023-03-26T01:24:13.913Z,7.77
2023-03-26T01:27:17.964Z,7.79
2023-03-26T01:29:56.896Z,7.80
2023-03-26T01:32:55.862Z,7.81
2023-03-26T01:35:41.728Z,7.82
2023-03-26T01:38:28.013Z,7.83
2023-03-26T01:41:09.351Z,7.84
2023-03-26T01:43:48.785Z,7.86
2023-03-26T01:46:22.699Z,7.88
2023-03-26T01:48:56.104Z,7.89
2023-03-26T01:51:33.356Z,7.90
2023-03-26T01:54:08.161Z,7.91
2023-03-26T01:56:57.584Z,7.91
2023-03-26T02:00:11.946Z,7.91
2023-03-26T02:02:56.732Z,7.90
2023-03-26T02:05:35.863Z,7.90
2023-03-26T02:08:21.149Z,7.88
2023-03-26T02:10:59.967Z,7.84
2023-03-26T02:13:35.109Z,7.77
2023-03-26T02:16:11.910Z,7.76
2023-03-26T02:18:44.776Z,7.74
2023-03-26T02:21:20.632Z,7.73
2023-03-26T02:23:58.198Z,7.72
2023-03-26T02:26:30.410Z,7.72
2023-03-26T02:29:05.898Z,7.71
2023-03-26T02:31:38.031Z,7.70
2023-03-26T02:34:10.483Z,7.70
2023-03-26T02:36:43.169Z,7.70
2023-03-26T02:39:15.868Z,7.70
2023-03-26T02:41:47.887Z,7.70
2023-03-26T02:44:22.666Z,7.70
2023-03-26T02:46:54.755Z,7.71
2023-03-26T02:49:27.404Z,7.72
2023-03-26T02:51:59.593Z,7.75
2023-03-26T02:54:31.965Z,7.79
2023-03-26T02:57:04.033Z,7.82
2023-03-26T02:59:38.633Z,7.82
2023-03-26T03:02:10.986Z,7.82
2023-03-26T03:04:44.165Z,7.84
2023-03-26T03:07:17.104Z,7.87
2023-03-26T03:09:50.825Z,7.92
2023-03-26T03:12:22.844Z,7.96
2023-03-26T03:14:57.576Z,7.99
2023-03-26T03:17:29.678Z,8.03
2023-03-26T03:20:01.793Z,8.06
2023-03-26T03:22:33.806Z,8.09
2023-03-26T03:25:09.176Z,8.11
2023-03-26T03:27:41.410Z,8.14
2023-03-26T03:30:18.074Z,8.16
2023-03-26T03:32:50.503Z,8.18
2023-03-26T03:35:22.997Z,8.20
2023-03-26T03:37:55.133Z,8.23
2023-03-26T03:40:27.349Z,8.26
2023-03-26T03:42:59.534Z,8.29
2023-03-26T03:45:34.390Z,8.32
2023-03-26T03:48:07.383Z,8.35
2023-03-26T03:50:39.535Z,8.37
2023-03-26T03:53:16.349Z,8.39
2023-03-26T03:55:53.409Z,8.40
2023-03-26T03:58:28.163Z,8.42
2023-03-26T04:01:04.508Z,8.44
2023-03-26T04:03:42.380Z,8.45
2023-03-26T04:06:19.030Z,8.45
2023-03-26T04:08:51.426Z,8.46
2023-03-26T04:11:23.656Z,8.43
2023-03-26T04:13:55.902Z,8.42
2023-03-26T04:16:30.546Z,8.45
2023-03-26T04:19:04.120Z,8.47
2023-03-26T04:21:38.169Z,8.49
2023-03-26T04:24:11.155Z,8.53
2023-03-26T04:26:43.367Z,8.54
2023-03-26T04:29:22.118Z,8.55
2023-03-26T04:32:06.732Z,8.57
2023-03-26T04:34:39.207Z,8.57
2023-03-26T04:37:12.505Z,8.58
2023-03-26T04:39:45.113Z,8.59
2023-03-26T04:42:20.108Z,8.59
2023-03-26T04:44:52.425Z,8.59
2023-03-26T04:47:27.131Z,8.61
2023-03-26T04:49:59.312Z,8.62
2023-03-26T04:52:32.359Z,8.64
2023-03-26T04:55:05.434Z,8.64
2023-03-26T04:57:46.363Z,8.65
2023-03-26T05:00:20.609Z,8.64
2023-03-26T05:02:58.004Z,8.63
2023-03-26T05:05:32.887Z,8.62
2023-03-26T05:08:04.957Z,8.62
2023-03-26T05:10:37.305Z,8.61
2023-03-26T05:13:09.381Z,8.61
2023-03-26T05:15:41.591Z,8.60
2023-03-26T05:18:16.271Z,8.59
2023-03-26T05:20:49.242Z,8.59
2023-03-26T05:23:21.281Z,8.59
2023-03-26T05:25:56.134Z,8.61
2023-03-26T05:28:28.465Z,8.62
2023-03-26T05:31:01.301Z,8.63
2023-03-26T05:33:36.388Z,8.64
2023-03-26T05:36:13.416Z,8.66
2023-03-26T05:38:47.923Z,8.67
2023-03-26T05:41:21.796Z,8.68
2023-03-26T05:43:53.907Z,8.69
2023-03-26T05:46:26.163Z,8.70
2023-03-26T05:49:01.036Z,8.70
2023-03-26T05:51:33.108Z,8.70
2023-03-26T05:54:05.654Z,8.70
2023-03-26T05:56:37.893Z,8.70
2023-03-26T05:59:10.191Z,8.71
2023-03-26T06:01:44.853Z,8.71
2023-03-26T06:04:20.235Z,8.71
2023-03-26T06:06:52.846Z,8.73
2023-03-26T06:09:24.903Z,8.75
2023-03-26T06:11:56.994Z,8.72
2023-03-26T06:14:29.269Z,8.74
2023-03-26T06:17:01.303Z,8.77
2023-03-26T06:19:35.938Z,8.80
2023-03-26T06:22:08.362Z,8.83
2023-03-26T06:24:40.555Z,8.85
2023-03-26T06:27:12.549Z,8.88
2023-03-26T06:29:44.556Z,8.91
2023-03-26T06:32:20.206Z,8.94
2023-03-26T06:34:55.393Z,8.97
2023-03-26T06:37:27.477Z,8.99
2023-03-26T06:39:59.540Z,9.00
2023-03-26T06:42:32.126Z,9.01
2023-03-26T06:45:23.759Z,9.01
2023-03-26T06:47:56.005Z,9.00
2023-03-26T06:50:32.331Z,9.00
2023-03-26T06:53:04.437Z,9.00
2023-03-26T06:55:36.725Z,9.00
2023-03-26T06:58:08.808Z,9.01
2023-03-26T07:00:42.810Z,9.02
2023-03-26T07:03:17.349Z,9.04
2023-03-26T07:05:52.539Z,9.05
2023-03-26T07:08:26.386Z,9.07
2023-03-26T07:10:58.600Z,9.08
2023-03-26T07:13:30.623Z,9.09
2023-03-26T07:16:03.184Z,9.11
2023-03-26T07:18:35.475Z,9.13
2023-03-26T07:21:11.416Z,9.14
2023-03-26T07:23:44.115Z,9.14
2023-03-26T07:26:34.984Z,9.16
2023-03-26T07:29:17.231Z,9.19
2023-03-26T07:31:56.976Z,9.22
2023-03-26T07:34:46.344Z,9.26
2023-03-26T07:37:36.405Z,9.31
2023-03-26T07:40:21.321Z,9.36
2023-03-26T07:43:09.891Z,9.37
2023-03-26T07:45:45.542Z,9.37
2023-03-26T07:48:25.574Z,9.37
2023-03-26T07:51:00.319Z,9.36
2023-03-26T07:53:35.478Z,9.36
2023-03-26T07:56:16.454Z,9.34
2023-03-26T07:59:08.155Z,9.34
2023-03-26T08:02:17.751Z,9.35
2023-03-26T08:05:10.668Z,9.41
2023-03-26T08:07:59.804Z,9.46
2023-03-26T08:10:42.335Z,9.49
2023-03-26T08:13:30.667Z,9.48
2023-03-26T08:16:11.135Z,9.51
2023-03-26T08:18:56.152Z,9.54
2023-03-26T08:21:34.049Z,9.57
2023-03-26T08:24:14.803Z,9.61
2023-03-26T08:27:01.713Z,9.62
2023-03-26T08:29:45.895Z,9.64
2023-03-26T08:32:22.680Z,9.64
2023-03-26T08:34:57.595Z,9.64
2023-03-26T08:37:30.048Z,9.63
2023-03-26T08:40:02.142Z,9.61
2023-03-26T08:43:07.092Z,9.60
2023-03-26T08:46:26.188Z,9.58
2023-03-26T08:49:07.138Z,9.57
2023-03-26T08:52:15.076Z,9.57
2023-03-26T08:55:11.864Z,9.55
2023-03-26T08:58:14.062Z,9.53
2023-03-26T09:01:24.525Z,9.49
2023-03-26T09:04:38.569Z,9.42
2023-03-26T09:07:36.787Z,9.34
2023-03-26T09:10:35.914Z,9.25
2023-03-26T09:29:07.879Z,8.85
2023-03-26T09:32:12.852Z,8.83
2023-03-26T09:35:15.012Z,8.81
2023-03-26T09:38:02.843Z,8.81
2023-03-26T09:40:47.688Z,8.82
2023-03-26T09:43:46.320Z,8.85
2023-03-26T09:46:32.867Z,8.89
2023-03-26T09:53:01.243Z,8.94
2023-03-26T09:55:59.599Z,8.95
2023-03-26T09:58:58.113Z,8.96
2023-03-26T10:01:45.953Z,8.97
2023-03-26T10:04:47.882Z,8.97
2023-03-26T10:10:59.236Z,8.91
2023-03-26T10:13:43.720Z,8.82
2023-03-26T10:27:09.134Z,8.80
2023-03-26T10:30:02.167Z,8.80
2023-03-26T10:32:45.513Z,8.81
2023-03-26T10:35:33.947Z,8.83
2023-03-26T10:38:19.173Z,8.85
2023-03-26T10:41:07.798Z,8.86
2023-03-26T10:44:17.023Z,8.85
2023-03-26T10:47:22.362Z,8.85
2023-03-26T10:50:22.743Z,8.87
2023-03-26T10:53:03.391Z,8.90
2023-03-26T10:55:44.408Z,8.92
2023-03-26T10:58:26.375Z,8.89
2023-03-26T11:01:06.758Z,8.83
2023-03-26T11:03:53.002Z,8.77
2023-03-26T11:06:38.912Z,8.73
2023-03-26T11:09:25.355Z,8.70
2023-03-26T11:12:25.476Z,8.67
2023-03-26T11:15:11.902Z,8.66
2023-03-26T11:18:02.761Z,8.66
2023-03-26T11:20:43.485Z,8.68
2023-03-26T11:23:38.422Z,8.70
2023-03-26T11:26:17.198Z,8.74
2023-03-26T11:29:32.788Z,8.75
2023-03-26T11:32:13.453Z,8.73
2023-03-26T11:35:00.798Z,8.73
2023-03-26T11:37:38.374Z,8.77
2023-03-26T11:40:21.565Z,8.84
2023-03-26T11:43:00.866Z,8.92
2023-03-26T11:45:38.823Z,8.96
2023-03-26T11:48:17.426Z,8.98
2023-03-26T11:50:57.417Z,8.96
2023-03-26T11:53:38.658Z,8.90
2023-03-26T11:56:19.502Z,8.85
2023-03-26T11:59:01.356Z,8.80
2023-03-26T12:01:50.576Z,8.73
2023-03-26T12:07:57.497Z,8.63
2023-03-26T12:10:38.460Z,8.64
2023-03-26T12:13:33.118Z,8.64
2023-03-26T12:16:11.892Z,8.75
2023-03-26T12:18:44.888Z,8.88
2023-03-26T12:24:49.140Z,9.03
2023-03-26T12:27:30.977Z,9.05
2023-03-26T12:30:13.186Z,9.07
2023-03-26T12:32:47.217Z,9.14
2023-03-26T12:38:27.596Z,9.29
2023-03-26T12:44:42.836Z,9.36
2023-03-26T12:44:56.579Z,9.45
2023-03-26T12:47:59.789Z,9.49
2023-03-26T12:50:18.074Z,9.52
2023-03-26T12:53:37.744Z,9.56
2023-03-26T12:56:24.526Z,9.61
2023-03-26T12:59:18.640Z,9.69
2023-03-26T13:02:02.509Z,9.77
2023-03-26T13:08:24.650Z,9.86
2023-03-26T13:11:08.010Z,9.91
2023-03-26T13:14:18.871Z,9.93
2023-03-26T13:16:59.428Z,9.98
2023-03-26T13:19:41.209Z,10.02
2023-03-26T13:25:40.846Z,10.10
2023-03-26T13:28:27.466Z,10.12
2023-03-26T13:31:15.113Z,10.12
2023-03-26T13:34:00.817Z,10.11
2023-03-26T13:36:47.464Z,10.11
2023-03-26T13:39:33.533Z,10.09
2023-03-26T13:42:31.681Z,10.07
2023-03-26T13:45:12.302Z,10.04
2023-03-26T13:47:52.564Z,10.06
2023-03-26T13:50:30.548Z,10.11
2023-03-26T13:53:07.196Z,10.16
2023-03-26T13:55:44.889Z,10.24
2023-03-26T13:58:34.265Z,10.30
2023-03-26T14:01:12.789Z,10.38
2023-03-26T14:03:58.422Z,10.44
2023-03-26T14:06:46.797Z,10.47
2023-03-26T14:09:26.053Z,10.49
2023-03-26T14:12:24.680Z,10.47
2023-03-26T14:15:04.448Z,10.49
2023-03-26T14:17:45.048Z,10.50
2023-03-26T14:20:56.496Z,10.48
2023-03-26T14:24:06.826Z,10.44
2023-03-26T14:27:05.644Z,10.35
2023-03-26T14:30:03.964Z,10.23
2023-03-26T14:32:58.725Z,10.07
2023-03-26T14:35:45.109Z,9.95
2023-03-26T14:38:53.952Z,9.88
2023-03-26T14:41:31.842Z,9.83
2023-03-26T14:44:47.751Z,9.81
2023-03-26T14:47:22.403Z,9.80
2023-03-26T14:50:46.983Z,9.80
2023-03-26T14:53:33.610Z,9.76
2023-03-26T14:56:51.053Z,9.75
2023-03-26T15:00:07.235Z,9.73
2023-03-26T15:03:14.651Z,9.67
2023-03-26T15:06:19.841Z,9.60
2023-03-26T15:09:27.855Z,9.51
2023-03-26T15:12:13.666Z,9.42
2023-03-26T15:15:34.586Z,9.34
2023-03-26T15:18:37.305Z,9.26
2023-03-26T15:21:48.926Z,9.24
2023-03-26T15:25:07.016Z,9.25
2023-03-26T15:28:01.541Z,9.33
2023-03-26T15:31:09.948Z,9.45
2023-03-26T15:34:24.797Z,9.54
2023-03-26T15:37:31.030Z,9.61
2023-03-26T15:40:30.041Z,9.65
2023-03-26T15:43:14.443Z,9.66
2023-03-26T15:45:50.593Z,9.64
2023-03-26T15:48:55.075Z,9.62
2023-03-26T15:51:46.512Z,9.60
2023-03-26T15:54:30.419Z,9.58
2023-03-26T15:57:16.915Z,9.49
2023-03-26T16:00:12.610Z,9.39
2023-03-26T16:02:54.083Z,9.28
2023-03-26T16:05:51.771Z,9.19
2023-03-26T16:08:39.288Z,9.09
2023-03-26T16:11:13.591Z,8.97
2023-03-26T16:13:47.255Z,8.75
2023-03-26T16:16:28.383Z,8.70
2023-03-26T16:19:22.955Z,8.64
2023-03-26T16:22:06.235Z,8.61
2023-03-26T16:24:42.605Z,8.59
2023-03-26T16:27:37.813Z,8.57
2023-03-26T16:30:20.891Z,8.55
2023-03-26T16:32:59.356Z,8.54
2023-03-26T16:36:03.816Z,8.52
2023-03-26T16:38:53.104Z,8.49
2023-03-26T16:41:31.632Z,8.45
2023-03-26T16:44:14.010Z,8.42
2023-03-26T16:46:58.483Z,8.37
2023-03-26T16:50:07.404Z,8.32
2023-03-26T16:52:53.411Z,8.26
2023-03-26T16:55:42.870Z,8.21
2023-03-26T16:58:31.267Z,8.16
2023-03-26T17:01:16.135Z,8.11
2023-03-26T17:03:58.305Z,8.10
2023-03-26T17:06:56.865Z,8.13
2023-03-26T17:09:44.281Z,8.14
2023-03-26T17:12:28.655Z,8.12
2023-03-26T17:15:15.435Z,8.06
2023-03-26T17:18:18.610Z,7.99
2023-03-26T17:21:04.565Z,7.92
2023-03-26T17:23:59.164Z,7.85
2023-03-26T17:26:46.122Z,7.76
2023-03-26T17:29:30.054Z,7.69
2023-03-26T17:32:12.457Z,7.62
2023-03-26T17:35:04.527Z,7.57
2023-03-26T17:37:48.133Z,7.52
2023-03-26T17:40:51.716Z,7.46
2023-03-26T17:43:42.288Z,7.42
2023-03-26T17:46:33.350Z,7.38
2023-03-26T17:49:16.867Z,7.32
2023-03-26T17:51:57.941Z,7.26
2023-03-26T17:54:39.473Z,7.21
2023-03-26T17:57:20.619Z,7.15
2023-03-26T17:59:57.077Z,7.11
2023-03-26T18:02:42.222Z,7.07
2023-03-26T18:05:22.847Z,7.04
2023-03-26T18:08:24.226Z,7.01
2023-03-26T18:11:24.003Z,6.95
2023-03-26T18:14:20.084Z,6.77
2023-03-26T18:16:56.210Z,6.72
2023-03-26T18:19:28.678Z,6.67
2023-03-26T18:22:02.635Z,6.60
2023-03-26T18:24:37.271Z,6.56
2023-03-26T18:27:13.187Z,6.53
2023-03-26T18:30:03.118Z,6.50
2023-03-26T18:32:41.090Z,6.50
2023-03-26T18:35:21.656Z,6.49
2023-03-26T18:37:59.056Z,6.50
2023-03-26T18:40:36.555Z,6.51
2023-03-26T18:43:09.053Z,6.53
2023-03-26T18:45:44.817Z,6.55
2023-03-26T18:48:22.768Z,6.56
2023-03-26T18:50:59.917Z,6.58
2023-03-26T18:53:42.985Z,6.58
2023-03-26T18:56:31.577Z,6.60
2023-03-26T18:59:05.381Z,6.61
2023-03-26T19:01:42.182Z,6.62
2023-03-26T19:04:17.012Z,6.60
2023-03-26T19:06:53.941Z,6.54
2023-03-26T19:09:32.132Z,6.46
2023-03-26T19:12:11.218Z,6.37
2023-03-26T19:14:59.433Z,6.30
2023-03-26T19:17:39.048Z,6.24
2023-03-26T19:20:20.002Z,6.20
2023-03-26T19:22:54.071Z,6.18
2023-03-26T19:25:30.279Z,6.17
2023-03-26T19:28:02.681Z,6.17
2023-03-26T19:30:38.061Z,6.17
2023-03-26T19:33:19.286Z,6.18
2023-03-26T19:35:57.782Z,6.20
2023-03-26T19:38:33.202Z,6.20
2023-03-26T19:41:05.300Z,6.17
2023-03-26T19:43:37.396Z,6.13
2023-03-26T19:46:09.605Z,6.08
2023-03-26T19:48:45.629Z,6.03
2023-03-26T19:51:24.595Z,5.99
2023-03-26T19:54:03.249Z,5.95
2023-03-26T19:56:35.513Z,5.90
2023-03-26T19:59:08.012Z,5.86
2023-03-26T20:01:40.224Z,5.82
2023-03-26T20:04:16.755Z,5.78
2023-03-26T20:06:49.316Z,5.76
2023-03-26T20:09:21.549Z,5.73
2023-03-26T20:11:54.379Z,5.68
2023-03-26T20:14:27.229Z,5.62
2023-03-26T20:16:59.317Z,5.63
2023-03-26T20:19:37.014Z,5.63
2023-03-26T20:22:10.276Z,5.63
2023-03-26T20:24:42.570Z,5.64
2023-03-26T20:27:16.297Z,5.64
2023-03-26T20:29:48.501Z,5.66
2023-03-26T20:32:27.111Z,5.67
2023-03-26T20:35:02.337Z,5.68
2023-03-26T20:37:34.361Z,5.68
2023-03-26T20:40:07.253Z,5.68
2023-03-26T20:42:39.285Z,5.68
2023-03-26T20:45:20.436Z,5.68
2023-03-26T20:47:54.358Z,5.67
2023-03-26T20:50:30.040Z,5.66
2023-03-26T20:53:03.753Z,5.64
2023-03-26T20:55:35.903Z,5.60
2023-03-26T20:58:08.377Z,5.56
2023-03-26T21:00:41.616Z,5.51
2023-03-26T21:03:17.167Z,5.47
2023-03-26T21:05:52.734Z,5.42
2023-03-26T21:08:30.349Z,5.38
2023-03-26T21:11:03.516Z,5.34
2023-03-26T21:13:43.116Z,5.30
2023-03-26T21:16:17.353Z,5.27
2023-03-26T21:18:50.190Z,5.24
2023-03-26T21:21:42.688Z,5.20
2023-03-26T21:24:25.587Z,5.14
2023-03-26T21:27:09.814Z,5.10
2023-03-26T21:29:42.822Z,5.05
2023-03-26T21:32:16.339Z,5.01
2023-03-26T21:34:58.769Z,4.98
2023-03-26T21:37:34.809Z,4.94
2023-03-26T21:40:14.430Z,4.90
2023-03-26T21:42:47.408Z,4.87
2023-03-26T21:45:20.724Z,4.84
2023-03-26T21:47:54.441Z,4.81
2023-03-26T21:50:27.706Z,4.79
2023-03-26T21:53:02.914Z,4.77
2023-03-26T21:55:46.803Z,4.75
2023-03-26T21:58:42.953Z,4.75
2023-03-26T22:01:30.481Z,4.75
2023-03-26T22:04:13.463Z,4.78
2023-03-26T22:06:52.690Z,4.82
2023-03-26T22:12:08.424Z,4.87
2023-03-26T22:14:40.795Z,4.89
2023-03-26T22:17:13.188Z,4.96
2023-03-26T22:19:45.222Z,5.00
2023-03-26T22:22:19.860Z,5.05
2023-03-26T22:24:54.576Z,5.10
2023-03-26T22:27:26.624Z,5.12
2023-03-26T22:29:58.984Z,5.15
2023-03-26T22:32:32.781Z,5.17
2023-03-26T22:35:05.356Z,5.19
2023-03-26T22:37:37.933Z,5.20
2023-03-26T22:40:13.910Z,5.21
2023-03-26T22:42:46.278Z,5.22
2023-03-26T22:45:20.275Z,5.21
2023-03-26T22:47:52.794Z,5.19
2023-03-26T22:50:36.200Z,5.16
2023-03-26T22:53:08.649Z,5.10
2023-03-26T22:55:43.847Z,5.04
2023-03-26T22:58:17.028Z,4.98
2023-03-26T23:00:51.856Z,4.92
2023-03-26T23:03:35.040Z,4.88
2023-03-26T23:06:13.610Z,4.84
2023-03-26T23:08:46.458Z,4.82
2023-03-26T23:11:23.430Z,4.80
2023-03-26T23:13:55.693Z,4.80
2023-03-26T23:16:27.770Z,4.79
2023-03-26T23:18:59.902Z,4.81
2023-03-26T23:21:31.940Z,4.86
2023-03-26T23:24:04.722Z,4.92
2023-03-26T23:26:49.622Z,4.96
2023-03-26T23:29:25.653Z,4.98
2023-03-26T23:31:57.735Z,5.01
2023-03-26T23:34:32.171Z,5.05
2023-03-26T23:37:04.205Z,5.07
2023-03-26T23:39:36.311Z,5.10
2023-03-26T23:42:12.574Z,5.14
2023-03-26T23:44:46.531Z,5.18
2023-03-26T23:47:18.593Z,5.21
2023-03-26T23:49:50.689Z,5.21
2023-03-26T23:52:22.687Z,5.18
2023-03-26T23:54:54.876Z,5.15
2023-03-26T23:57:30.635Z,5.12
